createdAt,value
2022-07-30T00:01:19.269Z,149.02
2022-07-30T00:03:46.474Z,163.85
2022-07-30T00:06:13.608Z,154.43
2022-07-30T00:08:40.651Z,157.88
2022-07-30T00:11:07.874Z,161.02
2022-07-30T00:13:34.966Z,165.93
2022-07-30T00:16:04.144Z,147.30
2022-07-30T00:18:31.495Z,151.05
2022-07-30T00:20:59.367Z,159.18
2022-07-30T00:23:26.745Z,147.57
2022-07-30T00:25:54.137Z,137.43
2022-07-30T00:28:22.198Z,151.07
2022-07-30T00:30:49.504Z,156.02
2022-07-30T00:33:22.731Z,121.28
2022-07-30T00:35:50.160Z,102.57
2022-07-30T00:38:18.689Z,122.05
2022-07-30T00:40:50.428Z,110.60
2022-07-30T00:43:18.210Z,122.88
2022-07-30T00:45:45.777Z,108.60
2022-07-30T00:48:14.371Z,117.82
2022-07-30T00:50:42.123Z,115.65
2022-07-30T00:53:15.030Z,103.97
2022-07-30T00:55:42.378Z,107.57
2022-07-30T00:58:09.496Z,114.15
2022-07-30T01:00:37.043Z,116.90
2022-07-30T01:03:04.906Z,135.07
2022-07-30T01:05:32.030Z,121.43
2022-07-30T01:07:59.512Z,104.93
2022-07-30T01:10:26.740Z,120.65
2022-07-30T01:12:54.612Z,112.97
2022-07-30T01:15:22.775Z,128.43
2022-07-30T01:17:53.503Z,120.85
2022-07-30T01:20:37.421Z,111.57
2022-07-30T01:23:32.154Z,115.80
2022-07-30T01:26:09.078Z,103.47
2022-07-30T01:28:43.293Z,127.53
2022-07-30T01:31:12.292Z,107.15
2022-07-30T01:33:42.991Z,138.60
2022-07-30T01:36:15.753Z,107.80
2022-07-30T01:38:46.458Z,113.40
2022-07-30T01:41:16.024Z,128.93
2022-07-30T01:43:45.351Z,121.78
2022-07-30T01:46:15.284Z,109.35
2022-07-30T01:48:46.447Z,149.55
2022-07-30T01:51:17.011Z,114.57
2022-07-30T01:53:51.227Z,130.98
2022-07-30T01:56:24.801Z,148.52
2022-07-30T01:58:55.334Z,113.00
2022-07-30T02:01:27.255Z,123.40
2022-07-30T02:04:01.600Z,135.25
2022-07-30T02:06:38.523Z,139.57
2022-07-30T02:09:11.230Z,141.90
2022-07-30T02:12:08.020Z,137.82
2022-07-30T02:14:55.209Z,137.55
2022-07-30T02:17:30.472Z,107.55
2022-07-30T02:20:10.071Z,143.85
2022-07-30T02:22:41.356Z,136.57
2022-07-30T02:27:42.372Z,107.85
2022-07-30T02:30:11.330Z,112.78
2022-07-30T02:32:42.803Z,119.20
2022-07-30T02:35:17.430Z,116.72
2022-07-30T02:37:46.717Z,140.10
2022-07-30T02:40:17.208Z,136.85
2022-07-30T02:45:20.224Z,91.95
2022-07-30T02:47:52.451Z,120.85
2022-07-30T02:50:21.247Z,116.22
2022-07-30T02:52:49.682Z,120.00
2022-07-30T02:55:19.061Z,137.95
2022-07-30T02:57:48.644Z,118.50
2022-07-30T03:00:17.294Z,128.73
2022-07-30T03:02:45.756Z,125.90
2022-07-30T03:05:15.431Z,113.45
2022-07-30T03:07:43.269Z,137.20
2022-07-30T03:10:13.541Z,129.02
2022-07-30T03:12:44.789Z,120.95
2022-07-30T03:15:13.783Z,115.95
2022-07-30T03:17:45.482Z,107.25
2022-07-30T03:20:17.665Z,128.43
2022-07-30T03:22:49.963Z,120.63
2022-07-30T03:25:23.716Z,148.65
2022-07-30T03:27:54.382Z,135.93
2022-07-30T03:30:23.995Z,119.25
2022-07-30T03:32:53.448Z,110.97
2022-07-30T03:35:22.176Z,111.78
2022-07-30T03:37:49.716Z,108.70
2022-07-30T03:40:19.391Z,133.93
2022-07-30T03:42:49.271Z,111.22
2022-07-30T03:45:21.073Z,114.32
2022-07-30T03:47:50.230Z,130.38
2022-07-30T03:50:17.427Z,136.13
2022-07-30T03:52:45.452Z,129.98
2022-07-30T03:55:17.368Z,143.38
2022-07-30T03:57:51.077Z,117.15
2022-07-30T04:00:22.816Z,124.05
2022-07-30T04:02:52.595Z,121.68
2022-07-30T04:05:40.999Z,113.63
2022-07-30T04:08:09.073Z,118.93
2022-07-30T04:10:36.361Z,137.95
2022-07-30T04:13:09.267Z,135.67
2022-07-30T04:16:37.580Z,118.25
2022-07-30T04:18:51.974Z,123.45
2022-07-30T04:21:22.806Z,116.38
2022-07-30T04:26:36.576Z,95.25
2022-07-30T04:29:09.491Z,123.00
2022-07-30T04:31:41.720Z,111.90
2022-07-30T04:34:27.498Z,120.93
2022-07-30T04:36:55.061Z,121.93
2022-07-30T04:39:22.596Z,126.47
2022-07-30T04:41:50.224Z,111.97
2022-07-30T04:44:32.653Z,115.97
2022-07-30T04:47:24.124Z,100.78
2022-07-30T04:50:11.977Z,102.28
2022-07-30T04:52:39.293Z,89.20
2022-07-30T04:55:08.881Z,110.53
2022-07-30T04:57:38.851Z,121.53
2022-07-30T05:00:07.010Z,118.00
2022-07-30T05:02:40.176Z,113.53
2022-07-30T05:05:09.430Z,117.25
2022-07-30T05:07:38.073Z,127.85
2022-07-30T05:10:08.054Z,107.05
2022-07-30T05:12:39.306Z,117.90
2022-07-30T05:15:08.701Z,117.80
2022-07-30T05:17:36.969Z,106.57
2022-07-30T05:20:06.996Z,117.05
2022-07-30T05:22:52.700Z,119.93
2022-07-30T05:25:21.984Z,119.80
2022-07-30T05:27:52.543Z,118.25
2022-07-30T05:30:19.559Z,118.43
2022-07-30T05:32:53.618Z,127.93
2022-07-30T05:35:23.536Z,113.47
2022-07-30T05:37:50.801Z,129.60
2022-07-30T05:40:19.587Z,132.93
2022-07-30T05:43:22.941Z,100.57
2022-07-30T05:45:50.101Z,129.50
2022-07-30T05:48:17.301Z,127.68
2022-07-30T05:50:44.381Z,132.80
2022-07-30T05:53:11.393Z,135.95
2022-07-30T05:55:57.634Z,132.43
2022-07-30T05:58:44.738Z,121.90
2022-07-30T06:01:15.249Z,123.13
2022-07-30T06:03:42.508Z,129.93
2022-07-30T06:06:28.186Z,125.13
2022-07-30T06:08:55.733Z,127.97
2022-07-30T06:11:23.061Z,138.13
2022-07-30T06:13:50.082Z,132.85
2022-07-30T06:16:18.673Z,126.00
2022-07-30T06:18:46.228Z,122.72
2022-07-30T06:21:22.317Z,129.93
2022-07-30T06:24:10.931Z,126.70
2022-07-30T06:27:07.114Z,118.65
2022-07-30T06:29:34.532Z,129.35
2022-07-30T06:32:01.656Z,136.52
2022-07-30T06:34:28.776Z,115.13
2022-07-30T06:36:55.811Z,133.60
2022-07-30T06:39:57.557Z,119.72
2022-07-30T06:42:15.650Z,129.45
2022-07-30T06:45:02.640Z,123.70
2022-07-30T06:47:48.468Z,131.77
2022-07-30T06:50:15.931Z,133.40
2022-07-30T06:52:43.012Z,129.15
2022-07-30T06:55:10.368Z,125.20
2022-07-30T06:57:48.067Z,131.27
2022-07-30T07:00:36.119Z,122.88
2022-07-30T07:03:11.755Z,125.60
2022-07-30T07:08:07.595Z,104.72
2022-07-30T07:10:38.675Z,86.68
2022-07-30T07:15:57.987Z,91.22
2022-07-30T07:18:27.284Z,90.15
2022-07-30T07:20:59.476Z,74.50
2022-07-30T07:23:41.630Z,74.00
2022-07-30T07:26:31.387Z,68.93
2022-07-30T07:29:01.129Z,68.20
2022-07-30T07:32:07.350Z,69.03
2022-07-30T07:34:19.563Z,68.78
2022-07-30T07:36:46.796Z,59.10
2022-07-30T07:39:14.989Z,60.83
2022-07-30T07:41:48.783Z,59.70
2022-07-30T07:44:20.842Z,60.33
2022-07-30T07:46:48.499Z,59.47
2022-07-30T07:49:15.879Z,60.97
2022-07-30T07:51:52.863Z,62.63
2022-07-30T07:54:22.991Z,60.83
2022-07-30T07:56:53.303Z,62.90
2022-07-30T07:59:27.735Z,60.78
2022-07-30T08:02:08.557Z,54.72
2022-07-30T08:04:49.606Z,53.80
2022-07-30T08:07:40.120Z,48.40
2022-07-30T08:10:26.898Z,44.42
2022-07-30T08:13:52.400Z,45.72
2022-07-30T08:16:18.342Z,44.95
2022-07-30T08:19:04.341Z,42.97
2022-07-30T08:21:35.303Z,43.90
2022-07-30T08:24:02.556Z,45.67
2022-07-30T08:26:29.899Z,26.55
2022-07-30T08:28:57.050Z,22.58
2022-07-30T08:31:24.461Z,25.75
2022-07-30T08:33:51.522Z,26.60
2022-07-30T08:36:21.543Z,31.55
2022-07-30T08:38:49.932Z,26.45
2022-07-30T08:41:20.360Z,28.02
2022-07-30T08:43:51.224Z,31.25
2022-07-30T08:46:25.005Z,27.77
2022-07-30T08:48:58.264Z,28.55
2022-07-30T08:51:25.808Z,27.85
2022-07-30T08:54:11.569Z,29.50
2022-07-30T08:56:39.450Z,29.33
2022-07-30T08:59:07.800Z,27.75
2022-07-30T09:01:34.916Z,25.75
2022-07-30T09:04:03.512Z,23.58
2022-07-30T09:06:30.964Z,28.77
2022-07-30T09:08:59.506Z,19.65
2022-07-30T09:11:27.810Z,26.17
2022-07-30T09:13:55.716Z,24.58
2022-07-30T09:16:26.150Z,23.88
2022-07-30T09:18:57.845Z,21.40
2022-07-30T09:21:26.295Z,19.35
2022-07-30T09:24:11.873Z,19.88
2022-07-30T09:27:07.102Z,21.02
2022-07-30T09:30:00.228Z,20.98
2022-07-30T09:32:51.109Z,21.38
2022-07-30T09:35:36.699Z,23.55
2022-07-30T09:38:10.616Z,25.02
2022-07-30T09:41:12.251Z,23.75
2022-07-30T09:44:06.327Z,21.52
2022-07-30T09:46:48.256Z,26.52
2022-07-30T09:49:37.473Z,22.85
2022-07-30T09:52:04.549Z,34.30
2022-07-30T09:54:51.432Z,22.17
2022-07-30T09:57:27.316Z,26.83
2022-07-30T10:00:19.655Z,28.02
2022-07-30T10:03:42.290Z,20.10
2022-07-30T10:06:38.143Z,22.45
2022-07-30T10:09:29.697Z,26.00
2022-07-30T10:12:03.009Z,31.45
2022-07-30T10:14:42.627Z,29.45
2022-07-30T10:17:12.965Z,27.48
2022-07-30T10:19:42.007Z,31.85
2022-07-30T10:22:28.830Z,31.00
2022-07-30T10:25:23.031Z,33.80
2022-07-30T10:28:14.244Z,34.78
2022-07-30T10:30:45.237Z,40.05
2022-07-30T10:33:37.769Z,39.10
2022-07-30T10:36:00.017Z,43.40
2022-07-30T10:38:33.850Z,39.60
2022-07-30T10:41:43.351Z,47.05
2022-07-30T10:44:44.986Z,30.23
2022-07-30T10:47:14.453Z,34.58
2022-07-30T10:49:43.150Z,41.05
2022-07-30T10:52:12.248Z,42.92
2022-07-30T10:54:47.499Z,38.83
2022-07-30T10:57:22.997Z,45.25
2022-07-30T11:00:00.945Z,46.15
2022-07-30T11:02:31.281Z,49.22
2022-07-30T11:05:18.000Z,68.38
2022-07-30T11:07:47.268Z,51.38
2022-07-30T11:10:43.837Z,64.70
2022-07-30T11:13:11.155Z,63.22
2022-07-30T11:15:57.220Z,58.92
2022-07-30T11:18:26.649Z,69.70
2022-07-30T11:21:16.873Z,74.85
2022-07-30T11:23:45.851Z,87.38
2022-07-30T11:26:46.593Z,70.32
2022-07-30T11:29:33.430Z,64.22
2022-07-30T11:32:26.650Z,61.88
2022-07-30T11:35:11.913Z,69.88
2022-07-30T11:38:22.346Z,100.53
2022-07-30T11:40:49.577Z,72.45
2022-07-30T11:43:35.261Z,98.40
2022-07-30T11:46:28.672Z,109.20
2022-07-30T11:48:59.989Z,81.15
2022-07-30T11:51:27.823Z,90.97
2022-07-30T11:54:03.247Z,90.57
2022-07-30T11:56:30.981Z,82.57
2022-07-30T11:59:08.403Z,86.78
2022-07-30T12:01:36.735Z,84.75
2022-07-30T12:04:08.944Z,90.13
2022-07-30T12:06:47.734Z,91.53
2022-07-30T12:09:29.171Z,74.53
2022-07-30T12:11:57.411Z,81.60
2022-07-30T12:14:24.877Z,77.40
2022-07-30T12:16:53.617Z,74.95
2022-07-30T12:19:20.952Z,60.45
2022-07-30T12:21:52.988Z,69.40
2022-07-30T12:24:26.431Z,52.97
2022-07-30T12:27:03.665Z,54.35
2022-07-30T12:29:32.902Z,44.28
2022-07-30T12:32:01.302Z,42.35
2022-07-30T12:34:28.576Z,51.45
2022-07-30T12:36:55.671Z,66.57
2022-07-30T12:39:25.806Z,58.25
2022-07-30T12:44:40.359Z,47.42
2022-07-30T12:47:19.330Z,46.08
2022-07-30T12:49:49.758Z,61.67
2022-07-30T12:52:29.353Z,62.53
2022-07-30T12:55:12.696Z,42.80
2022-07-30T12:57:59.331Z,59.40
2022-07-30T13:00:47.091Z,103.28
2022-07-30T13:03:28.485Z,74.38
2022-07-30T13:05:57.183Z,136.18
2022-07-30T13:08:45.761Z,121.30
2022-07-30T13:11:12.922Z,115.88
2022-07-30T13:13:40.053Z,109.97
2022-07-30T13:16:07.951Z,103.18
2022-07-30T13:18:36.659Z,130.48
2022-07-30T13:21:06.842Z,93.90
2022-07-30T13:26:02.058Z,96.32
2022-07-30T13:28:31.926Z,91.55
2022-07-30T13:31:00.626Z,97.43
2022-07-30T13:33:27.664Z,106.28
2022-07-30T13:35:54.650Z,137.20
2022-07-30T13:38:22.883Z,127.57
2022-07-30T13:40:50.179Z,109.97
2022-07-30T13:43:17.393Z,122.07
2022-07-30T13:45:44.657Z,106.68
2022-07-30T13:48:12.093Z,128.35
2022-07-30T13:50:39.103Z,105.50
2022-07-30T13:53:06.241Z,115.07
2022-07-30T13:55:33.379Z,150.70
2022-07-30T13:58:00.650Z,155.40
2022-07-30T14:00:34.295Z,153.25
2022-07-30T14:03:06.091Z,130.88
2022-07-30T14:05:36.088Z,125.53
2022-07-30T14:08:10.996Z,178.45
2022-07-30T14:10:39.870Z,188.27
2022-07-30T14:13:08.337Z,176.30
2022-07-30T14:15:35.746Z,119.65
2022-07-30T14:18:03.017Z,152.20
2022-07-30T14:20:31.139Z,156.57
2022-07-30T14:22:58.124Z,128.20
2022-07-30T14:25:25.488Z,148.85
2022-07-30T14:27:52.510Z,142.90
2022-07-30T14:30:20.315Z,122.80
2022-07-30T14:32:48.156Z,89.55
2022-07-30T14:35:15.167Z,117.60
2022-07-30T14:37:42.490Z,123.22
2022-07-30T14:40:13.985Z,122.50
2022-07-30T14:42:41.699Z,114.43
2022-07-30T14:45:10.221Z,112.38
2022-07-30T14:47:37.586Z,83.68
2022-07-30T14:50:06.606Z,108.45
2022-07-30T14:52:35.127Z,150.98
2022-07-30T14:55:03.943Z,90.05
2022-07-30T14:57:33.940Z,90.78
2022-07-30T15:00:01.502Z,105.35
2022-07-30T15:02:28.411Z,88.25
2022-07-30T15:04:55.657Z,104.53
2022-07-30T15:07:22.683Z,128.07
2022-07-30T15:09:49.877Z,89.63
2022-07-30T15:12:23.847Z,76.05
2022-07-30T15:14:54.032Z,93.53
2022-07-30T15:17:21.006Z,97.35
2022-07-30T15:19:50.672Z,88.70
2022-07-30T15:22:20.017Z,93.55
2022-07-30T15:24:47.321Z,76.65
2022-07-30T15:27:14.426Z,88.32
2022-07-30T15:29:41.545Z,73.00
2022-07-30T15:32:09.157Z,87.15
2022-07-30T15:34:36.278Z,86.90
2022-07-30T15:37:05.251Z,90.00
2022-07-30T15:39:33.969Z,67.13
2022-07-30T15:42:03.035Z,89.97
2022-07-30T15:44:30.442Z,74.73
2022-07-30T15:46:57.768Z,83.40
2022-07-30T15:49:25.007Z,86.50
2022-07-30T15:51:52.763Z,52.47
2022-07-30T15:54:23.287Z,57.00
2022-07-30T15:56:54.251Z,65.40
2022-07-30T15:59:29.159Z,75.88
2022-07-30T16:01:56.404Z,55.65
2022-07-30T16:04:31.317Z,57.25
2022-07-30T16:07:04.214Z,47.83
2022-07-30T16:09:31.698Z,40.88
2022-07-30T16:11:58.964Z,38.20
2022-07-30T16:14:27.365Z,52.55
2022-07-30T16:16:54.680Z,35.92
2022-07-30T16:19:23.064Z,47.95
2022-07-30T16:21:50.116Z,33.35
2022-07-30T16:24:17.258Z,38.45
2022-07-30T16:26:44.279Z,29.77
2022-07-30T16:29:13.877Z,36.83
2022-07-30T16:31:41.553Z,47.45
2022-07-30T16:34:08.659Z,43.58
2022-07-30T16:36:35.691Z,35.22
2022-07-30T16:39:04.835Z,39.47
2022-07-30T16:41:31.868Z,37.33
2022-07-30T16:43:58.886Z,52.95
2022-07-30T16:46:26.020Z,50.00
2022-07-30T16:48:53.175Z,49.97
2022-07-30T16:51:22.507Z,37.58
2022-07-30T16:53:49.503Z,47.00
2022-07-30T16:56:17.213Z,38.88
2022-07-30T16:58:44.880Z,59.05
2022-07-30T17:01:12.239Z,48.25
2022-07-30T17:03:39.791Z,51.20
2022-07-30T17:06:06.785Z,40.38
2022-07-30T17:08:35.306Z,42.75
2022-07-30T17:11:03.959Z,62.58
2022-07-30T17:13:37.029Z,50.60
2022-07-30T17:16:04.247Z,43.53
2022-07-30T17:18:32.426Z,47.30
2022-07-30T17:20:59.671Z,49.70
2022-07-30T17:23:26.699Z,78.45
2022-07-30T17:25:53.752Z,51.17
2022-07-30T17:28:21.765Z,46.85
2022-07-30T17:30:54.167Z,41.17
2022-07-30T17:33:21.886Z,56.22
2022-07-30T17:35:49.043Z,57.67
2022-07-30T17:38:16.133Z,45.38
2022-07-30T17:40:43.136Z,51.47
2022-07-30T17:43:11.642Z,43.97
2022-07-30T17:45:41.200Z,61.92
2022-07-30T17:48:08.355Z,58.08
2022-07-30T17:50:35.903Z,49.60
2022-07-30T17:53:04.206Z,61.00
2022-07-30T17:55:34.878Z,42.90
2022-07-30T17:58:05.765Z,48.38
2022-07-30T18:00:34.836Z,55.45
2022-07-30T18:03:02.142Z,54.03
2022-07-30T18:05:29.601Z,39.03
2022-07-30T18:07:56.640Z,43.28
2022-07-30T18:10:24.017Z,53.83
2022-07-30T18:12:51.150Z,63.35
2022-07-30T18:15:19.025Z,46.13
2022-07-30T18:17:46.140Z,48.42
2022-07-30T18:20:13.500Z,42.03
2022-07-30T18:22:40.869Z,42.58
2022-07-30T18:25:17.985Z,71.20
2022-07-30T18:27:47.743Z,42.58
2022-07-30T18:30:15.666Z,62.85
2022-07-30T18:32:43.407Z,51.90
2022-07-30T18:35:14.015Z,49.05
2022-07-30T18:37:43.710Z,73.32
2022-07-30T18:40:12.789Z,76.93
2022-07-30T18:42:39.905Z,59.83
2022-07-30T18:45:07.833Z,78.55
2022-07-30T18:47:35.050Z,86.32
2022-07-30T18:50:02.655Z,63.78
2022-07-30T18:52:29.710Z,77.75
2022-07-30T18:54:56.645Z,63.97
2022-07-30T18:57:23.840Z,82.75
2022-07-30T18:59:50.983Z,71.72
2022-07-30T19:02:18.041Z,85.07
2022-07-30T19:04:45.318Z,67.93
2022-07-30T19:07:12.367Z,72.35
2022-07-30T19:09:39.699Z,90.07
2022-07-30T19:12:07.232Z,62.35
2022-07-30T19:14:34.595Z,63.05
2022-07-30T19:17:01.553Z,68.03
2022-07-30T19:19:29.682Z,61.28
2022-07-30T19:21:57.291Z,80.20
2022-07-30T19:24:27.635Z,68.97
2022-07-30T19:26:56.004Z,69.60
2022-07-30T19:29:23.961Z,72.60
2022-07-30T19:31:50.981Z,65.45
2022-07-30T19:34:17.977Z,105.55
2022-07-30T19:36:44.914Z,111.68
2022-07-30T19:39:21.388Z,99.28
2022-07-30T19:41:51.014Z,105.85
2022-07-30T19:44:18.687Z,88.15
2022-07-30T19:46:48.774Z,117.15
2022-07-30T19:49:19.590Z,84.13
2022-07-30T19:52:10.071Z,105.03
2022-07-30T19:54:34.335Z,100.10
2022-07-30T19:57:04.150Z,97.43
2022-07-30T20:02:19.418Z,114.63
2022-07-30T20:04:49.814Z,130.98
2022-07-30T20:07:16.996Z,132.68
2022-07-30T20:09:44.889Z,104.63
2022-07-30T20:12:15.548Z,132.52
2022-07-30T20:14:44.263Z,139.18
2022-07-30T20:17:11.775Z,123.95
2022-07-30T20:19:39.351Z,146.07
2022-07-30T20:22:15.066Z,131.15
2022-07-30T20:24:42.489Z,141.98
2022-07-30T20:27:36.232Z,133.95
2022-07-30T20:29:56.832Z,151.82
2022-07-30T20:32:25.840Z,133.18
2022-07-30T20:34:54.035Z,137.73
2022-07-30T20:37:22.607Z,163.48
2022-07-30T20:39:50.506Z,121.45
2022-07-30T20:42:18.516Z,147.70
2022-07-30T20:44:50.590Z,140.32
2022-07-30T20:47:34.736Z,130.65
2022-07-30T20:50:10.779Z,130.13
2022-07-30T20:52:40.509Z,121.93
2022-07-30T20:55:16.577Z,127.03
2022-07-30T20:58:00.245Z,109.13
2022-07-30T21:00:31.760Z,132.20
2022-07-30T21:02:59.143Z,141.73
2022-07-30T21:05:30.693Z,139.48
2022-07-30T21:07:58.538Z,132.38
2022-07-30T21:10:25.980Z,127.22
2022-07-30T21:12:58.481Z,105.13
2022-07-30T21:15:32.833Z,111.22
2022-07-30T21:18:01.503Z,136.35
2022-07-30T21:20:30.266Z,133.18
2022-07-30T21:23:04.923Z,129.50
2022-07-30T21:25:33.430Z,110.97
2022-07-30T21:30:49.903Z,123.00
2022-07-30T21:33:17.097Z,127.03
2022-07-30T21:35:44.595Z,112.80
2022-07-30T21:38:12.841Z,126.05
2022-07-30T21:40:41.033Z,137.15
2022-07-30T21:43:08.198Z,101.22
2022-07-30T21:45:38.068Z,124.63
2022-07-30T21:48:10.856Z,132.00
2022-07-30T21:50:38.311Z,107.43
2022-07-30T21:53:05.366Z,123.70
2022-07-30T21:55:33.376Z,130.30
2022-07-30T21:58:25.108Z,117.10
2022-07-30T22:00:55.113Z,99.70
2022-07-30T22:04:03.732Z,109.65
2022-07-30T22:06:12.452Z,93.18
2022-07-30T22:08:40.129Z,84.15
2022-07-30T22:11:09.090Z,80.68
2022-07-30T22:13:51.545Z,111.13
2022-07-30T22:16:21.974Z,70.03
2022-07-30T22:18:50.306Z,76.60
2022-07-30T22:21:17.398Z,96.38
2022-07-30T22:23:54.937Z,103.50
2022-07-30T22:26:27.165Z,86.55
2022-07-30T22:28:54.548Z,81.88
2022-07-30T22:31:21.851Z,89.05
2022-07-30T22:33:50.922Z,78.90
2022-07-30T22:36:19.928Z,87.13
2022-07-30T22:38:58.521Z,92.05
2022-07-30T22:41:29.037Z,81.65
2022-07-30T22:43:56.535Z,86.78
2022-07-30T22:46:30.933Z,91.55
2022-07-30T22:48:59.733Z,107.07
2022-07-30T22:52:02.672Z,108.30
2022-07-30T22:54:14.844Z,109.45
2022-07-30T22:56:42.642Z,107.88
2022-07-30T22:59:19.298Z,108.03
2022-07-30T23:02:06.671Z,105.28
2022-07-30T23:04:39.463Z,100.53
2022-07-30T23:07:07.611Z,117.00
2022-07-30T23:09:42.292Z,115.35
2022-07-30T23:12:16.862Z,124.63
2022-07-30T23:12:20.113Z,111.03
2022-07-30T23:12:27.316Z,135.73
2022-07-30T23:14:48.170Z,112.35
2022-07-30T23:17:15.375Z,114.10
2022-07-30T23:19:42.549Z,122.72
2022-07-30T23:22:10.317Z,118.22
2022-07-30T23:24:37.707Z,123.25
2022-07-30T23:27:05.183Z,123.65
2022-07-30T23:29:32.693Z,116.72
2022-07-30T23:31:59.815Z,124.75
2022-07-30T23:34:27.495Z,121.90
2022-07-30T23:36:54.520Z,118.97
2022-07-30T23:39:21.768Z,119.03
2022-07-30T23:41:48.801Z,112.93
2022-07-30T23:44:16.224Z,117.05
2022-07-30T23:46:43.324Z,120.43
2022-07-30T23:49:11.202Z,126.57
2022-07-30T23:51:38.290Z,125.40
2022-07-30T23:54:06.419Z,128.68
2022-07-30T23:56:33.575Z,121.93
2022-07-30T23:59:01.193Z,116.35
